Chronik & Geschichte

Boeing Stearman am Flugplatz Konstanz

Mit seiner 107-jährigen Geschichte ist Konstanz der älteste Verkehrslandeplatz Deutschlands. Lesen Sie unsere Festschrift zum 100-jährigen Platzjubiläum oder entdecken Sie die ausführliche Flugplatzchronik auf der Website der Initiative PRO Flugplatz Konstanz.

Live am Platz

Die Bilder unserer Webcams werden alle 5 Minuten aktualisiert.

Sonnenaufgang:

07:01 UTC / 08:01 Lokal

Sonnenuntergang:

16:07 UTC / 17:07 Lokal

METAR (20.01.2019 10:50 UTC):

EDNY 201050Z VRB01KT CAVOK M02/M05 Q1014
VFR

TAF (20.01.2019 05:00 UTC):

TAF EDNY 200500Z 2006/2106 VRB03KT 7000 SCT020 PROB30 TEMPO 2006/2009 2000 BCFG BKN004 TEMPO 2007/2012 4000 -SN BKN012 TEMPO 2019/2106 4000 -SN BKN006

Alle Angaben unverbindlich und ohne Gewähr. Zeiten genähert.

Für den Verkehrslandeplatz Konstanz werden keine offiziellen Wetterinformationen ausgegeben. Daher werden zur Orientierung Daten des nahegelegenen Flughafens Friedrichshafen dargestellt.

Flugwetterdaten zur Verfügung gestellt von wippich.aero.